Spencer, Iowa
Current Conditions -  °F | °C
As of 10:53 PM on Friday 28 Nov 2014 (Local Time) from KSPW Reporting Station
Haze Haze  
Wind Chill: -9°   Ceiling: Unl
Heat Index: -4°   Visibility: 6mi
Dew Point: -6°   Wind: 8mph
Humidity: 88%   Direction: 120°ESE
Pressure: 29.61"   Gusts: NA
Location:  43.14°N, 95.14°W
Report Text: KSPW 290453Z AUTO 12007KT 6SM BR CLR M04/M06 A2961 RMK AO2 SLP044 T10441061 TSNO
Loading
Personal Weather Stations






























Interactive Weather Map New forecast layout! Learn more

10-Day Weather Forecast

Advertisements
Track Severe Weather on mobile